Time;durP1;ratioP1;P1;durP2;ratioP2;P2;SDS_P1;SDS_P2;PMS_P1;PMS_P2;Temp;Humidity;BMP_temperature;BMP_pressure;BME280_temperature;BME280_humidity;BME280_pressure;Samples;Min_cycle;Max_cycle;Signal;HPM_P1;HPM_P2
2022/03/14 00:00:42;;;;;;;34.63;31.50;;;6.60;90.90;;;;;;5009576;28;20131;-74
2022/03/14 00:03:13;;;;;;;34.38;31.05;;;6.50;91.20;;;;;;5017651;28;20608;-75
2022/03/14 00:05:40;;;;;;;34.03;31.00;;;6.50;90.90;;;;;;5022635;28;20115;-75
2022/03/14 00:08:07;;;;;;;33.28;30.33;;;6.50;91.60;;;;;;5039453;28;20080;-74
2022/03/14 00:10:34;;;;;;;33.90;31.00;;;6.30;91.50;;;;;;5021696;28;20503;-75
2022/03/14 00:13:03;;;;;;;34.55;31.17;;;6.40;91.50;;;;;;4989521;28;20065;-75
2022/03/14 00:15:32;;;;;;;33.17;30.20;;;6.30;90.90;;;;;;5020147;28;20633;-75
2022/03/14 00:18:01;;;;;;;35.97;32.88;;;6.30;91.60;;;;;;5020461;28;20071;-75
2022/03/14 00:20:28;;;;;;;34.97;32.00;;;6.30;91.00;;;;;;4985143;28;20331;-74
2022/03/14 00:22:56;;;;;;;35.75;32.08;;;6.50;91.00;;;;;;5020009;28;20080;-75
2022/03/14 00:25:23;;;;;;;34.30;31.30;;;6.40;91.60;;;;;;5019874;28;20468;-76
2022/03/14 00:27:49;;;;;;;34.15;31.08;;;6.50;91.30;;;;;;5019648;28;20073;-75
2022/03/14 00:30:21;;;;;;;34.17;31.20;;;6.50;91.70;;;;;;5007643;28;20580;-75
2022/03/14 00:32:48;;;;;;;34.30;31.02;;;6.60;91.80;;;;;;5005446;28;20187;-74
2022/03/14 00:35:16;;;;;;;34.03;30.88;;;6.50;91.50;;;;;;5002025;28;20140;-76
2022/03/14 00:37:43;;;;;;;37.67;33.78;;;6.50;91.30;;;;;;5002654;28;20498;-76
2022/03/14 00:40:11;;;;;;;36.67;32.88;;;6.50;90.50;;;;;;5019571;28;20179;-75
2022/03/14 00:42:40;;;;;;;37.53;32.67;;;6.60;91.30;;;;;;5001727;28;20263;-76
2022/03/14 00:45:08;;;;;;;37.40;33.90;;;6.60;91.50;;;;;;5001321;28;20049;-75
2022/03/14 00:47:34;;;;;;;36.63;32.97;;;6.70;91.60;;;;;;5019936;28;20346;-76
2022/03/14 00:50:01;;;;;;;36.28;32.92;;;6.60;91.10;;;;;;5001346;28;20104;-76
2022/03/14 00:52:28;;;;;;;34.22;31.02;;;6.60;91.40;;;;;;5019963;28;20278;-75
2022/03/14 00:54:55;;;;;;;35.60;32.00;;;6.60;91.10;;;;;;5002407;28;20045;-76
2022/03/14 00:57:22;;;;;;;35.83;32.47;;;6.60;92.30;;;;;;5018828;28;20057;-76
2022/03/14 00:59:49;;;;;;;35.55;32.15;;;6.60;92.80;;;;;;5024543;28;20075;-74
2022/03/14 01:02:15;;;;;;;35.53;32.13;;;6.60;92.90;;;;;;5032016;28;20041;-77
2022/03/14 01:04:42;;;;;;;35.35;32.10;;;6.60;92.60;;;;;;5009322;28;20103;-76
2022/03/14 01:07:09;;;;;;;33.65;30.85;;;6.60;92.10;;;;;;5006373;28;20057;-76
2022/03/14 01:09:36;;;;;;;34.63;31.52;;;6.60;92.20;;;;;;4990385;28;20097;-76
2022/03/14 01:12:03;;;;;;;34.70;31.50;;;6.60;92.10;;;;;;5006576;28;20057;-77
2022/03/14 01:14:30;;;;;;;34.50;31.35;;;6.70;92.20;;;;;;5006444;28;20124;-76
2022/03/14 01:16:57;;;;;;;33.67;30.67;;;6.70;91.60;;;;;;5006377;28;20069;-76
2022/03/14 01:19:23;;;;;;;34.58;31.20;;;6.60;91.90;;;;;;5023750;28;20045;-76
2022/03/14 01:21:50;;;;;;;34.25;31.02;;;6.60;91.80;;;;;;5024067;28;20046;-76
2022/03/14 01:24:18;;;;;;;32.70;29.65;;;6.60;91.60;;;;;;5006105;28;20136;-76
2022/03/14 01:29:23;;;;;;;34.47;31.25;;;6.80;91.60;;;;;;4979167;28;20091;-73
2022/03/14 01:31:54;;;;;;;32.67;29.80;;;6.70;91.40;;;;;;4966134;28;20129;-74
2022/03/14 01:34:21;;;;;;;34.58;30.98;;;6.70;91.50;;;;;;4984877;28;20074;-73
2022/03/14 01:36:48;;;;;;;32.10;29.17;;;6.80;93.90;;;;;;4986768;28;20062;-73
2022/03/14 01:39:15;;;;;;;33.17;30.08;;;6.80;92.50;;;;;;5004323;28;20274;-74
2022/03/14 01:41:41;;;;;;;33.45;30.33;;;6.70;93.30;;;;;;5003528;28;20065;-74
2022/03/14 01:44:08;;;;;;;34.08;30.60;;;6.70;93.00;;;;;;4986916;28;20053;-73
2022/03/14 01:46:36;;;;;;;33.85;30.83;;;6.70;93.60;;;;;;5003997;28;20137;-73
2022/03/14 01:49:04;;;;;;;34.85;31.52;;;6.70;93.70;;;;;;4985669;28;20516;-73
2022/03/14 01:51:34;;;;;;;34.55;31.27;;;6.60;94.00;;;;;;5003395;28;20050;-74
2022/03/14 01:54:01;;;;;;;33.95;30.70;;;6.70;93.90;;;;;;5003509;28;20108;-73
2022/03/14 01:56:28;;;;;;;34.85;31.58;;;6.70;93.40;;;;;;5011849;28;20045;-73
2022/03/14 01:58:55;;;;;;;34.10;30.77;;;6.90;92.80;;;;;;5004641;28;20465;-74
2022/03/14 02:01:22;;;;;;;34.05;30.90;;;6.90;91.90;;;;;;5003210;28;20037;-74
2022/03/14 02:03:52;;;;;;;33.70;30.50;;;6.90;91.80;;;;;;5003807;28;20417;-73
2022/03/14 02:06:19;;;;;;;34.17;30.50;;;7.00;92.40;;;;;;5003784;28;20416;-74
2022/03/14 02:08:46;;;;;;;33.03;30.33;;;7.10;91.70;;;;;;5003931;28;20085;-73
2022/03/14 02:11:13;;;;;;;32.70;29.67;;;7.20;92.00;;;;;;5003335;28;20074;-75
2022/03/14 02:13:40;;;;;;;33.63;30.40;;;7.00;93.80;;;;;;5003287;28;20502;-73
2022/03/14 02:16:07;;;;;;;34.50;30.95;;;6.80;94.00;;;;;;5002172;28;20123;-73
2022/03/14 02:18:33;;;;;;;34.75;31.55;;;6.70;93.30;;;;;;5003431;28;20057;-74
2022/03/14 02:21:00;;;;;;;33.88;30.67;;;6.80;93.20;;;;;;5002701;28;20167;-73
2022/03/14 02:23:27;;;;;;;32.78;29.83;;;6.90;93.30;;;;;;4985777;28;20553;-73
2022/03/14 02:25:55;;;;;;;33.45;30.35;;;7.00;93.70;;;;;;4995191;28;20361;-73
2022/03/14 02:28:23;;;;;;;33.42;30.30;;;7.00;93.60;;;;;;4989380;28;20038;-74
2022/03/14 02:30:51;;;;;;;34.45;31.17;;;7.00;93.30;;;;;;5001608;28;20046;-74
2022/03/14 02:33:19;;;;;;;34.03;30.77;;;7.00;93.40;;;;;;5003641;28;20077;-74
2022/03/14 02:35:46;;;;;;;33.22;30.20;;;6.90;94.10;;;;;;5003600;28;20040;-74
2022/03/14 02:38:17;;;;;;;33.15;30.00;;;6.90;94.40;;;;;;5004243;28;20049;-73
2022/03/14 02:40:48;;;;;;;33.25;30.27;;;7.00;93.20;;;;;;4984715;28;20049;-73
2022/03/14 02:43:16;;;;;;;32.85;29.88;;;7.10;93.90;;;;;;5003540;28;20042;-73
2022/03/14 02:45:45;;;;;;;32.63;29.60;;;6.70;95.40;;;;;;4985215;28;20054;-73
2022/03/14 02:48:13;;;;;;;32.88;29.85;;;6.60;94.00;;;;;;5009907;28;20038;-73
2022/03/14 02:50:42;;;;;;;32.90;29.90;;;6.60;94.00;;;;;;5021927;28;20037;-73
2022/03/14 02:53:13;;;;;;;33.75;30.45;;;6.60;94.30;;;;;;5000224;28;20503;-73
2022/03/14 02:55:40;;;;;;;32.33;29.58;;;6.60;95.00;;;;;;5005365;28;20049;-73
2022/03/14 02:58:08;;;;;;;32.60;29.70;;;6.70;94.90;;;;;;5007090;28;20132;-73
2022/03/14 03:00:37;;;;;;;32.72;29.95;;;6.70;95.30;;;;;;5001666;28;20050;-74
2022/03/14 03:03:10;;;;;;;32.60;29.63;;;6.70;96.70;;;;;;5007133;28;20490;-74
2022/03/14 03:05:37;;;;;;;33.28;30.17;;;6.80;97.70;;;;;;4985094;28;20042;-74
2022/03/14 03:08:06;;;;;;;33.85;30.67;;;6.80;97.90;;;;;;5002521;28;20046;-73
2022/03/14 03:10:34;;;;;;;33.60;29.85;;;6.80;98.00;;;;;;5002267;28;20108;-74
2022/03/14 03:13:04;;;;;;;33.42;30.42;;;6.70;98.40;;;;;;5001696;28;20073;-73
2022/03/14 03:15:31;;;;;;;33.17;30.08;;;6.70;98.70;;;;;;4984770;28;20099;-73
2022/03/14 03:17:59;;;;;;;34.08;30.77;;;6.60;99.10;;;;;;5002962;28;20089;-73
2022/03/14 03:20:26;;;;;;;34.55;31.05;;;6.60;99.00;;;;;;5001408;28;20053;-73
2022/03/14 03:22:53;;;;;;;33.95;30.70;;;6.60;98.40;;;;;;5002711;28;20765;-73
2022/03/14 03:25:20;;;;;;;33.83;30.48;;;6.70;98.70;;;;;;5009262;28;20144;-73
2022/03/14 03:27:47;;;;;;;33.53;30.33;;;6.70;98.10;;;;;;5009358;28;20058;-73
2022/03/14 03:30:14;;;;;;;33.60;30.50;;;6.80;98.00;;;;;;5001173;28;20099;-73
2022/03/14 03:32:41;;;;;;;34.75;31.55;;;6.80;98.00;;;;;;5002370;28;20137;-73
2022/03/14 03:35:08;;;;;;;33.65;30.33;;;6.70;98.40;;;;;;5000271;28;20084;-73
2022/03/14 03:37:36;;;;;;;34.10;30.95;;;6.60;97.90;;;;;;5001422;28;20120;-73
2022/03/14 03:40:04;;;;;;;34.55;31.17;;;6.60;98.60;;;;;;5001570;28;20049;-73
2022/03/14 03:42:31;;;;;;;33.90;30.77;;;6.60;98.50;;;;;;5002366;28;20046;-73
2022/03/14 03:44:58;;;;;;;34.35;31.23;;;6.60;98.80;;;;;;4967985;28;20527;-73
2022/03/14 03:47:25;;;;;;;34.80;31.40;;;6.60;99.90;;;;;;4983560;28;20049;-75
2022/03/14 03:49:52;;;;;;;34.88;31.63;;;6.50;99.60;;;;;;5001942;28;20092;-73
2022/03/14 03:52:18;;;;;;;35.38;32.08;;;6.50;99.90;;;;;;5002695;28;20551;-73
2022/03/14 03:54:45;;;;;;;34.70;31.42;;;6.50;99.90;;;;;;5001451;28;20081;-73
2022/03/14 03:57:12;;;;;;;35.63;32.08;;;6.50;99.90;;;;;;5010598;28;20042;-75
2022/03/14 03:59:40;;;;;;;34.30;31.10;;;6.50;99.90;;;;;;5011197;28;20050;-75
2022/03/14 04:02:08;;;;;;;33.88;30.60;;;6.50;99.90;;;;;;5001032;28;20180;-75
2022/03/14 04:04:37;;;;;;;34.90;31.33;;;6.50;99.90;;;;;;5002125;28;20085;-75
2022/03/14 04:07:04;;;;;;;33.92;30.90;;;6.50;99.90;;;;;;4984166;28;20077;-74
2022/03/14 04:09:31;;;;;;;34.92;31.52;;;6.50;99.40;;;;;;4984236;28;20132;-75
2022/03/14 04:11:57;;;;;;;34.47;31.40;;;6.50;99.90;;;;;;4999505;28;20543;-72
2022/03/14 04:14:29;;;;;;;35.03;31.85;;;6.50;99.90;;;;;;5001741;28;20132;-72
2022/03/14 04:16:58;;;;;;;36.55;33.00;;;6.40;99.90;;;;;;5001097;28;20127;-75
2022/03/14 04:19:25;;;;;;;36.40;32.75;;;6.40;99.90;;;;;;5001651;28;20080;-75
2022/03/14 04:21:52;;;;;;;35.92;32.13;;;6.30;99.90;;;;;;5001274;28;20546;-75
2022/03/14 04:24:19;;;;;;;36.38;32.47;;;6.30;99.90;;;;;;5002175;28;20050;-74
2022/03/14 04:26:47;;;;;;;38.08;34.08;;;6.30;99.90;;;;;;5005902;28;20045;-75
2022/03/14 04:29:15;;;;;;;36.78;33.15;;;6.30;99.90;;;;;;5004449;28;20042;-74
2022/03/14 04:31:42;;;;;;;37.22;33.42;;;6.40;99.90;;;;;;5000486;28;20046;-75
2022/03/14 04:34:09;;;;;;;40.05;35.72;;;6.50;99.90;;;;;;5000426;28;20524;-74
2022/03/14 04:36:36;;;;;;;40.92;35.30;;;6.70;99.90;;;;;;5000170;28;20092;-75
2022/03/14 04:39:05;;;;;;;40.00;35.80;;;6.90;99.90;;;;;;4999035;28;20140;-76
2022/03/14 04:41:35;;;;;;;39.67;35.38;;;7.00;99.90;;;;;;4983182;28;20273;-76
2022/03/14 04:44:02;;;;;;;40.70;34.70;;;7.10;99.90;;;;;;5000438;28;20056;-75
2022/03/14 04:46:29;;;;;;;39.83;35.53;;;7.20;99.90;;;;;;5000671;28;20077;-75
2022/03/14 04:48:56;;;;;;;39.85;34.95;;;7.20;99.90;;;;;;5000935;28;20582;-74
2022/03/14 04:51:23;;;;;;;39.47;35.25;;;7.20;99.90;;;;;;4999404;28;20042;-74
2022/03/14 04:53:49;;;;;;;39.88;35.22;;;7.10;99.90;;;;;;5001717;28;20103;-74
2022/03/14 04:56:16;;;;;;;42.60;35.47;;;7.00;99.90;;;;;;5003481;28;20038;-74
2022/03/14 04:58:43;;;;;;;36.05;31.98;;;7.00;99.90;;;;;;4996376;28;20466;-74
2022/03/14 05:01:09;;;;;;;45.47;35.45;;;6.90;99.90;;;;;;5002492;28;20042;-74
2022/03/14 05:03:36;;;;;;;40.00;34.10;;;6.90;99.90;;;;;;5001086;28;20084;-74
2022/03/14 05:06:03;;;;;;;39.80;31.85;;;6.80;99.90;;;;;;5000572;28;20124;-74
2022/03/14 05:08:30;;;;;;;45.97;33.80;;;6.70;99.90;;;;;;5001076;28;20065;-74
2022/03/14 05:10:58;;;;;;;38.85;32.60;;;6.60;99.90;;;;;;4997793;28;20314;-74
2022/03/14 05:13:25;;;;;;;41.95;33.45;;;6.60;99.90;;;;;;5001389;28;20141;-74
2022/03/14 05:15:52;;;;;;;44.25;33.30;;;6.50;99.90;;;;;;5000377;28;20046;-74
2022/03/14 05:18:19;;;;;;;42.97;33.13;;;6.50;99.90;;;;;;4998911;28;20044;-74
2022/03/14 05:20:45;;;;;;;46.45;33.35;;;6.40;99.90;;;;;;4999884;28;20100;-74
2022/03/14 05:23:12;;;;;;;48.05;34.72;;;6.30;99.90;;;;;;5000207;28;20073;-74
2022/03/14 05:25:39;;;;;;;43.13;32.47;;;6.20;99.90;;;;;;5001356;28;20045;-74
2022/03/14 05:28:05;;;;;;;48.33;32.15;;;6.20;99.90;;;;;;4993819;28;20038;-74
2022/03/14 05:30:32;;;;;;;51.17;34.30;;;6.10;99.90;;;;;;4996808;28;20038;-73
2022/03/14 05:32:59;;;;;;;51.15;33.42;;;6.10;99.90;;;;;;5005253;28;20543;-74
2022/03/14 05:35:26;;;;;;;50.10;33.25;;;6.10;99.90;;;;;;5000780;28;20121;-74
2022/03/14 05:37:53;;;;;;;55.47;34.03;;;6.10;99.90;;;;;;5015623;28;20070;-74
2022/03/14 05:40:20;;;;;;;56.13;34.50;;;6.10;99.90;;;;;;4999654;28;20590;-74
2022/03/14 05:42:50;;;;;;;55.33;35.25;;;6.00;99.90;;;;;;4983119;28;20046;-74
2022/03/14 05:45:19;;;;;;;57.08;35.05;;;6.00;99.90;;;;;;5000287;28;20519;-73
2022/03/14 05:47:47;;;;;;;57.63;36.17;;;6.10;99.90;;;;;;5002256;28;20514;-73
2022/03/14 05:50:15;;;;;;;62.17;36.78;;;6.10;99.90;;;;;;5006070;28;20046;-73
2022/03/14 05:52:42;;;;;;;67.32;39.05;;;6.10;99.90;;;;;;5002008;28;20125;-73
2022/03/14 05:55:09;;;;;;;63.47;39.40;;;6.10;99.90;;;;;;5003451;28;20088;-74
2022/03/14 05:57:36;;;;;;;66.63;39.05;;;6.10;99.90;;;;;;4992907;28;20058;-74
2022/03/14 06:00:05;;;;;;;58.13;35.10;;;6.10;99.90;;;;;;5002287;28;20543;-73
2022/03/14 06:02:47;;;;;;;61.60;36.85;;;6.10;99.90;;;;;;5002753;28;20045;-74
2022/03/14 06:05:17;;;;;;;62.30;35.05;;;6.20;99.90;;;;;;5003051;28;20062;-73
2022/03/14 06:07:44;;;;;;;63.90;35.70;;;6.20;99.90;;;;;;4985965;28;20716;-73
2022/03/14 06:10:15;;;;;;;64.60;38.22;;;6.20;99.90;;;;;;5002509;28;20118;-73
2022/03/14 06:12:42;;;;;;;66.60;37.53;;;6.30;99.90;;;;;;5003452;28;20050;-74
2022/03/14 06:15:12;;;;;;;66.95;39.08;;;6.40;99.90;;;;;;5003313;28;20058;-74
2022/03/14 06:17:43;;;;;;;74.30;39.90;;;6.40;99.90;;;;;;5001891;28;20570;-73
2022/03/14 06:20:12;;;;;;;67.40;38.38;;;6.40;99.90;;;;;;4984220;28;20512;-74
2022/03/14 06:22:41;;;;;;;72.78;40.47;;;6.40;99.90;;;;;;4985402;28;20365;-74
2022/03/14 06:25:08;;;;;;;82.15;42.78;;;6.40;99.90;;;;;;5002913;28;20057;-74
2022/03/14 06:27:35;;;;;;;87.80;43.58;;;6.50;99.90;;;;;;5010667;28;20615;-73
2022/03/14 06:30:04;;;;;;;82.47;45.83;;;6.50;99.90;;;;;;5007686;28;20153;-73
2022/03/14 06:32:38;;;;;;;92.32;48.05;;;6.50;99.90;;;;;;5002438;28;20100;-73
2022/03/14 06:35:07;;;;;;;84.32;43.20;;;6.40;99.90;;;;;;5002546;28;20252;-72
2022/03/14 06:37:33;;;;;;;79.30;42.28;;;6.40;99.90;;;;;;5003129;28;20076;-72
2022/03/14 06:40:01;;;;;;;80.10;40.67;;;6.40;99.90;;;;;;5003957;28;20152;-72
2022/03/14 06:42:29;;;;;;;85.18;39.83;;;6.50;99.90;;;;;;4987946;28;20107;-73
2022/03/14 06:45:01;;;;;;;77.90;42.45;;;6.50;99.90;;;;;;4991544;28;20058;-72
2022/03/14 06:47:29;;;;;;;73.30;39.03;;;6.50;99.90;;;;;;5002789;28;20054;-73
2022/03/14 06:49:55;;;;;;;68.20;36.72;;;6.40;99.90;;;;;;5022271;28;20123;-73
2022/03/14 06:52:22;;;;;;;68.97;36.42;;;6.40;99.90;;;;;;4988945;28;20409;-73
2022/03/14 06:54:49;;;;;;;67.10;36.72;;;6.50;99.90;;;;;;5003639;28;20077;-72
2022/03/14 06:57:16;;;;;;;65.90;35.63;;;6.50;99.90;;;;;;5010442;28;20072;-73
2022/03/14 06:59:42;;;;;;;64.32;33.25;;;6.40;99.90;;;;;;5002255;28;20637;-72
2022/03/14 07:02:09;;;;;;;55.28;29.58;;;6.40;99.90;;;;;;4999456;28;20140;-72
2022/03/14 07:04:37;;;;;;;57.35;29.33;;;6.40;99.90;;;;;;5002662;28;20045;-72
2022/03/14 07:07:04;;;;;;;55.75;31.30;;;6.40;99.90;;;;;;5002064;28;20141;-73
2022/03/14 07:09:32;;;;;;;60.03;31.13;;;6.30;99.90;;;;;;5001770;28;20594;-73
2022/03/14 07:11:58;;;;;;;59.03;30.27;;;6.40;99.90;;;;;;5016213;28;20065;-72
2022/03/14 07:14:25;;;;;;;61.65;31.52;;;6.40;99.90;;;;;;5001909;28;20049;-71
2022/03/14 07:16:52;;;;;;;58.20;31.25;;;6.30;99.90;;;;;;5001461;28;20073;-73
2022/03/14 07:19:19;;;;;;;58.67;28.75;;;6.40;99.90;;;;;;5001575;28;20544;-73
2022/03/14 07:21:46;;;;;;;49.58;27.45;;;6.30;99.90;;;;;;5001438;28;20137;-73
2022/03/14 07:24:13;;;;;;;53.40;28.38;;;6.40;99.90;;;;;;5000200;28;20152;-73
2022/03/14 07:26:39;;;;;;;49.42;26.52;;;6.40;99.90;;;;;;4991263;28;20053;-73
2022/03/14 07:29:06;;;;;;;47.45;24.58;;;6.40;99.90;;;;;;5011160;28;20077;-71
2022/03/14 07:31:35;;;;;;;48.00;24.23;;;6.40;99.90;;;;;;5000157;28;20107;-72
2022/03/14 07:34:03;;;;;;;40.58;22.88;;;6.40;99.90;;;;;;5000419;28;20073;-72
2022/03/14 07:36:30;;;;;;;40.15;22.02;;;6.40;99.90;;;;;;5000928;28;20085;-72
2022/03/14 07:38:56;;;;;;;28.73;17.63;;;6.40;99.90;;;;;;4999905;28;20046;-72
2022/03/14 07:41:23;;;;;;;30.45;17.70;;;6.30;99.90;;;;;;5001315;28;20140;-72
2022/03/14 07:43:50;;;;;;;22.33;13.05;;;6.20;99.90;;;;;;5000117;28;20515;-72
2022/03/14 07:46:17;;;;;;;24.80;13.82;;;6.20;99.90;;;;;;5000729;28;20120;-73
2022/03/14 07:48:44;;;;;;;26.13;12.40;;;6.20;99.90;;;;;;5012712;28;20045;-74
2022/03/14 07:51:11;;;;;;;24.98;13.88;;;6.20;99.90;;;;;;5020497;28;20140;-74
2022/03/14 07:53:38;;;;;;;29.02;14.07;;;6.20;99.90;;;;;;5016287;28;20096;-74
2022/03/14 07:56:05;;;;;;;24.65;13.77;;;6.30;99.90;;;;;;5004970;28;20060;-73
2022/03/14 07:58:32;;;;;;;28.52;14.13;;;6.30;99.90;;;;;;5010184;28;20072;-70
2022/03/14 08:00:59;;;;;;;24.27;13.07;;;6.40;99.90;;;;;;5005616;28;20042;-73
2022/03/14 08:03:26;;;;;;;27.15;14.65;;;6.40;99.90;;;;;;5001437;28;20042;-74
2022/03/14 08:05:55;;;;;;;24.75;12.20;;;6.40;99.90;;;;;;5001350;28;20037;-74
2022/03/14 08:08:27;;;;;;;23.27;12.20;;;6.50;99.90;;;;;;4985171;28;20581;-73
2022/03/14 08:10:54;;;;;;;17.77;10.05;;;6.50;99.90;;;;;;4998552;28;20391;-73
2022/03/14 08:13:21;;;;;;;14.23;8.57;;;6.50;99.90;;;;;;4999181;28;20045;-72
2022/03/14 08:15:48;;;;;;;16.15;9.90;;;6.60;99.90;;;;;;4999648;28;20053;-73
2022/03/14 08:18:15;;;;;;;23.38;12.63;;;6.70;99.90;;;;;;5000706;28;20042;-73
2022/03/14 08:20:42;;;;;;;21.30;11.25;;;6.80;99.90;;;;;;4997046;28;20092;-72
2022/03/14 08:23:09;;;;;;;13.57;8.65;;;6.80;99.90;;;;;;5000742;28;20201;-72
2022/03/14 08:25:36;;;;;;;14.25;7.75;;;6.80;99.90;;;;;;5000392;28;20136;-73
2022/03/14 08:28:03;;;;;;;15.07;9.07;;;6.80;99.90;;;;;;5006954;28;20104;-73
2022/03/14 08:30:30;;;;;;;11.43;6.90;;;6.90;99.90;;;;;;4999446;28;20054;-73
2022/03/14 08:32:59;;;;;;;11.48;6.72;;;6.90;99.90;;;;;;5005444;28;20086;-74
2022/03/14 08:35:26;;;;;;;9.80;5.60;;;7.00;99.90;;;;;;4989036;28;20562;-73
2022/03/14 08:37:54;;;;;;;11.95;6.47;;;7.00;99.90;;;;;;5000787;28;20528;-73
2022/03/14 08:40:24;;;;;;;13.30;10.48;;;7.00;99.90;;;;;;4981996;28;20077;-72
2022/03/14 08:42:53;;;;;;;17.60;11.27;;;7.00;99.90;;;;;;4981995;28;20109;-72
2022/03/14 08:45:22;;;;;;;18.20;11.05;;;7.00;99.90;;;;;;4981031;28;20602;-72
2022/03/14 08:47:49;;;;;;;13.85;8.43;;;7.10;99.90;;;;;;5003979;28;20644;-72
2022/03/14 08:50:16;;;;;;;12.27;6.97;;;7.00;99.90;;;;;;5005505;28;20050;-72
2022/03/14 08:52:45;;;;;;;12.75;8.68;;;6.90;99.90;;;;;;5003883;28;20143;-72
2022/03/14 08:55:12;;;;;;;8.55;6.95;;;6.90;99.90;;;;;;4981228;28;20152;-72
2022/03/14 08:57:40;;;;;;;15.88;7.25;;;7.00;99.90;;;;;;5009264;28;20092;-72
2022/03/14 09:00:08;;;;;;;15.70;9.52;;;7.00;99.90;;;;;;4998118;28;20650;-71
2022/03/14 09:02:39;;;;;;;11.02;7.40;;;6.90;99.90;;;;;;4999567;28;20050;-72
2022/03/14 09:05:07;;;;;;;10.52;6.45;;;6.90;99.90;;;;;;4999912;28;20171;-73
2022/03/14 09:07:33;;;;;;;7.35;5.10;;;6.90;99.90;;;;;;4998759;28;20125;-72
2022/03/14 09:10:06;;;;;;;7.75;6.07;;;6.90;99.90;;;;;;4999629;28;20137;-71
2022/03/14 09:12:33;;;;;;;9.15;6.35;;;6.90;99.90;;;;;;4982148;28;20677;-72
2022/03/14 09:15:01;;;;;;;5.85;5.25;;;6.90;99.90;;;;;;5000108;28;20108;-73
2022/03/14 09:17:30;;;;;;;8.68;5.93;;;6.90;99.90;;;;;;4997326;28;20064;-72
2022/03/14 09:19:57;;;;;;;12.95;8.82;;;6.90;99.90;;;;;;4999320;28;20090;-73
2022/03/14 09:22:24;;;;;;;8.13;5.68;;;6.90;99.90;;;;;;4998599;28;20046;-73
2022/03/14 09:24:52;;;;;;;8.85;5.78;;;7.00;99.90;;;;;;5003374;28;20733;-73
2022/03/14 09:27:18;;;;;;;9.55;5.47;;;7.10;99.90;;;;;;5008997;28;20840;-72
2022/03/14 09:29:45;;;;;;;11.55;7.20;;;7.10;99.90;;;;;;5004108;28;20163;-73
2022/03/14 09:32:13;;;;;;;6.75;4.93;;;7.30;99.90;;;;;;5001314;28;20336;-73
2022/03/14 09:34:40;;;;;;;13.40;7.57;;;7.40;99.90;;;;;;5003091;28;20041;-72
2022/03/14 09:37:07;;;;;;;16.10;8.65;;;7.50;99.90;;;;;;5003235;28;20073;-71
2022/03/14 09:39:35;;;;;;;23.20;10.95;;;7.50;99.90;;;;;;5001403;28;20054;-71
2022/03/14 09:42:02;;;;;;;19.00;11.73;;;7.60;99.90;;;;;;5002545;28;20057;-71
2022/03/14 09:44:30;;;;;;;19.45;12.02;;;7.60;99.90;;;;;;4984890;28;20089;-72
2022/03/14 09:47:04;;;;;;;14.27;8.57;;;7.50;99.90;;;;;;4985228;28;20066;-72
2022/03/14 09:49:32;;;;;;;19.85;12.15;;;7.40;99.90;;;;;;5003097;28;20079;-72
2022/03/14 09:51:59;;;;;;;16.33;10.23;;;7.30;99.90;;;;;;5002956;28;20069;-71
2022/03/14 09:54:27;;;;;;;16.50;10.35;;;7.30;99.90;;;;;;4985421;28;20112;-71
2022/03/14 09:56:59;;;;;;;18.17;10.73;;;7.40;99.90;;;;;;5009442;28;20037;-71
2022/03/14 09:59:26;;;;;;;17.55;11.65;;;7.30;99.90;;;;;;5003523;28;20132;-71
2022/03/14 10:01:52;;;;;;;20.17;12.45;;;7.30;99.90;;;;;;5001920;28;20108;-73
2022/03/14 10:04:19;;;;;;;19.80;13.02;;;7.30;99.90;;;;;;5002197;28;20044;-73
2022/03/14 10:06:46;;;;;;;23.02;13.90;;;7.30;99.90;;;;;;4985241;28;20073;-72
2022/03/14 10:09:13;;;;;;;27.02;15.50;;;7.30;99.90;;;;;;4983403;28;20050;-73
2022/03/14 10:11:40;;;;;;;32.22;19.13;;;7.30;99.90;;;;;;4981681;28;20704;-70
2022/03/14 10:14:10;;;;;;;28.65;17.48;;;7.30;99.90;;;;;;4995547;28;20144;-71
2022/03/14 10:16:37;;;;;;;26.90;16.15;;;7.30;99.90;;;;;;4995470;28;20084;-71
2022/03/14 10:19:09;;;;;;;28.40;16.88;;;7.30;99.90;;;;;;4991612;28;20309;-74
2022/03/14 10:21:38;;;;;;;29.35;16.17;;;7.30;99.90;;;;;;4993332;28;20474;-71
2022/03/14 10:24:10;;;;;;;33.22;18.85;;;7.30;99.90;;;;;;4993520;28;20129;-71
2022/03/14 10:26:41;;;;;;;33.08;18.42;;;7.20;99.90;;;;;;4994509;28;20390;-72
2022/03/14 10:29:11;;;;;;;37.10;21.13;;;7.30;99.90;;;;;;4994307;28;20777;-71
2022/03/14 10:31:45;;;;;;;45.92;26.05;;;7.30;99.90;;;;;;4995198;28;20133;-72
2022/03/14 10:34:14;;;;;;;38.28;20.98;;;7.30;99.90;;;;;;4993487;28;20137;-72
2022/03/14 10:36:45;;;;;;;40.67;23.30;;;7.30;99.90;;;;;;4993649;28;20066;-72
2022/03/14 10:39:13;;;;;;;41.15;23.02;;;7.40;99.90;;;;;;4993878;28;20123;-71
2022/03/14 10:41:40;;;;;;;43.13;23.35;;;7.50;99.90;;;;;;4994675;28;20340;-72
2022/03/14 10:44:24;;;;;;;48.45;24.20;;;7.50;99.90;;;;;;4995192;28;20061;-74
2022/03/14 10:46:53;;;;;;;47.17;23.73;;;7.60;99.90;;;;;;4994115;28;20049;-71
2022/03/14 10:49:26;;;;;;;54.15;27.58;;;7.50;99.90;;;;;;4992595;28;20141;-71
2022/03/14 10:51:59;;;;;;;51.53;26.73;;;7.40;99.90;;;;;;4992733;28;20571;-71
2022/03/14 10:54:26;;;;;;;63.42;29.38;;;7.50;99.90;;;;;;4976851;28;20046;-72
2022/03/14 10:57:12;;;;;;;46.33;25.48;;;7.50;99.90;;;;;;4994196;28;20140;-71
2022/03/14 10:59:45;;;;;;;51.50;24.80;;;7.50;99.90;;;;;;4995955;28;20045;-73
2022/03/14 11:02:21;;;;;;;51.85;25.95;;;7.50;99.90;;;;;;5003949;28;20068;-72
2022/03/14 11:04:53;;;;;;;54.30;27.92;;;7.50;99.90;;;;;;5001215;28;20048;-71
2022/03/14 11:07:25;;;;;;;56.17;30.98;;;7.60;99.90;;;;;;5021408;28;20097;-72
2022/03/14 11:09:53;;;;;;;52.00;29.45;;;7.70;99.90;;;;;;5017635;28;20705;-72
2022/03/14 11:12:22;;;;;;;58.25;30.55;;;7.80;99.90;;;;;;5001105;28;20181;-72
2022/03/14 11:14:55;;;;;;;59.63;30.13;;;7.80;99.90;;;;;;5001167;28;20641;-72
2022/03/14 11:17:24;;;;;;;63.67;31.73;;;7.90;99.90;;;;;;4983103;28;20588;-72
2022/03/14 11:19:52;;;;;;;55.38;31.08;;;8.00;99.90;;;;;;5000535;28;20104;-72
2022/03/14 11:22:20;;;;;;;60.45;32.10;;;7.90;99.90;;;;;;4981397;28;20097;-72
2022/03/14 11:24:49;;;;;;;61.42;33.58;;;7.90;99.90;;;;;;4947999;28;20078;-72
2022/03/14 11:27:37;;;;;;;58.70;32.10;;;8.10;99.90;;;;;;5008578;28;20049;-73
2022/03/14 11:30:09;;;;;;;56.00;29.75;;;8.30;99.90;;;;;;4981742;28;20661;-71
2022/03/14 11:32:37;;;;;;;46.45;27.20;;;8.30;99.90;;;;;;4998469;28;20114;-73
2022/03/14 11:35:06;;;;;;;53.67;29.98;;;8.30;99.90;;;;;;5001285;28;20049;-72
2022/03/14 11:37:34;;;;;;;48.78;25.50;;;8.40;99.90;;;;;;4983566;28;20551;-73
2022/03/14 11:40:04;;;;;;;50.00;24.33;;;8.40;99.90;;;;;;4998578;28;20493;-73
2022/03/14 11:42:30;;;;;;;47.15;25.08;;;8.40;99.90;;;;;;4982863;28;20050;-73
2022/03/14 11:45:05;;;;;;;41.80;24.80;;;8.50;99.90;;;;;;5000812;28;20049;-73
2022/03/14 11:47:32;;;;;;;52.53;27.88;;;8.60;99.90;;;;;;5001327;28;20092;-73
2022/03/14 11:50:00;;;;;;;45.40;24.52;;;8.70;99.90;;;;;;5019925;28;20492;-73
2022/03/14 11:52:39;;;;;;;45.10;24.30;;;8.60;99.90;;;;;;5004482;28;20037;-74
2022/03/14 11:55:19;;;;;;;46.83;25.63;;;8.60;99.90;;;;;;4998550;28;20046;-73
2022/03/14 11:57:47;;;;;;;48.33;24.90;;;8.70;99.90;;;;;;5002234;28;20157;-73
2022/03/14 12:00:32;;;;;;;48.28;26.73;;;8.60;99.90;;;;;;4998788;28;20073;-73
2022/03/14 12:03:05;;;;;;;47.10;27.73;;;8.60;99.90;;;;;;4999451;28;20046;-73
2022/03/14 12:05:32;;;;;;;54.55;25.20;;;8.60;99.90;;;;;;4980950;28;20077;-73
2022/03/14 12:08:00;;;;;;;47.15;27.50;;;8.60;99.90;;;;;;4981531;28;20054;-73
2022/03/14 12:10:28;;;;;;;46.10;22.23;;;8.60;99.90;;;;;;4980683;28;20112;-73
2022/03/14 12:12:55;;;;;;;51.28;27.30;;;8.40;99.90;;;;;;4992444;28;20042;-73
2022/03/14 12:15:48;;;;;;;51.00;28.42;;;8.40;99.90;;;;;;4998563;28;20057;-72
2022/03/14 12:18:24;;;;;;;49.10;26.10;;;8.40;99.90;;;;;;5000793;28;20054;-75
2022/03/14 12:20:52;;;;;;;43.85;25.73;;;8.40;99.90;;;;;;4999274;28;20054;-73
2022/03/14 12:23:26;;;;;;;41.00;23.75;;;8.40;99.90;;;;;;5000385;28;20057;-72
2022/03/14 12:25:54;;;;;;;47.83;26.63;;;8.30;99.90;;;;;;5001148;28;20503;-72
2022/03/14 12:28:32;;;;;;;49.33;26.45;;;8.20;99.90;;;;;;5008702;28;20777;-73
2022/03/14 12:31:11;;;;;;;43.33;23.50;;;8.20;99.90;;;;;;4999184;28;20061;-73
2022/03/14 12:33:44;;;;;;;46.80;25.83;;;8.20;99.90;;;;;;4999562;28;20050;-73
2022/03/14 12:36:31;;;;;;;48.50;24.23;;;8.10;99.90;;;;;;4980833;28;20049;-74
2022/03/14 12:39:08;;;;;;;42.70;24.17;;;8.20;99.90;;;;;;4998692;28;20115;-71
2022/03/14 12:41:39;;;;;;;43.47;23.90;;;8.10;99.90;;;;;;4982254;28;20052;-73
2022/03/14 12:44:20;;;;;;;50.85;25.35;;;8.00;99.90;;;;;;5000383;28;20050;-73
2022/03/14 12:46:49;;;;;;;42.80;21.17;;;8.00;99.90;;;;;;4998390;28;20724;-73